sensor_id;sensor_type;location;lat;lon;timestamp;temperature;humidity
46336;DHT22;31365;48.858;8.530;2023-12-14T00:00:08;7.40;99.90
46336;DHT22;31365;48.858;8.530;2023-12-14T00:02:38;7.40;99.90
46336;DHT22;31365;48.858;8.530;2023-12-14T00:05:07;7.30;99.90
46336;DHT22;31365;48.858;8.530;2023-12-14T00:07:35;7.30;99.90
46336;DHT22;31365;48.858;8.530;2023-12-14T00:10:04;7.40;99.90
46336;DHT22;31365;48.858;8.530;2023-12-14T00:12:34;7.30;99.90
46336;DHT22;31365;48.858;8.530;2023-12-14T00:15:03;7.30;99.90
46336;DHT22;31365;48.858;8.530;2023-12-14T00:17:32;7.30;99.90
46336;DHT22;31365;48.858;8.530;2023-12-14T00:20:00;7.30;99.90
46336;DHT22;31365;48.858;8.530;2023-12-14T00:22:29;7.30;99.90
46336;DHT22;31365;48.858;8.530;2023-12-14T00:24:58;7.30;99.90
46336;DHT22;31365;48.858;8.530;2023-12-14T00:27:26;7.30;99.90
46336;DHT22;31365;48.858;8.530;2023-12-14T00:29:56;7.30;99.90
46336;DHT22;31365;48.858;8.530;2023-12-14T00:32:24;7.20;99.90
46336;DHT22;31365;48.858;8.530;2023-12-14T00:34:53;7.20;99.90
46336;DHT22;31365;48.858;8.530;2023-12-14T00:37:21;7.20;99.90
46336;DHT22;31365;48.858;8.530;2023-12-14T00:39:49;7.20;99.90
46336;DHT22;31365;48.858;8.530;2023-12-14T00:42:17;7.20;99.90
46336;DHT22;31365;48.858;8.530;2023-12-14T00:44:45;7.20;99.90
46336;DHT22;31365;48.858;8.530;2023-12-14T00:47:15;7.20;99.90
46336;DHT22;31365;48.858;8.530;2023-12-14T00:49:44;7.20;99.90
46336;DHT22;31365;48.858;8.530;2023-12-14T00:52:12;7.20;99.90
46336;DHT22;31365;48.858;8.530;2023-12-14T00:54:40;7.20;99.90
46336;DHT22;31365;48.858;8.530;2023-12-14T00:57:08;7.30;99.90
46336;DHT22;31365;48.858;8.530;2023-12-14T00:59:37;7.30;99.90
46336;DHT22;31365;48.858;8.530;2023-12-14T01:02:05;7.30;99.90
46336;DHT22;31365;48.858;8.530;2023-12-14T01:04:35;7.40;99.90
46336;DHT22;31365;48.858;8.530;2023-12-14T01:07:03;7.40;99.90
46336;DHT22;31365;48.858;8.530;2023-12-14T01:09:32;7.40;99.90
46336;DHT22;31365;48.858;8.530;2023-12-14T01:12:00;7.40;99.90
46336;DHT22;31365;48.858;8.530;2023-12-14T01:14:28;7.40;99.90
46336;DHT22;31365;48.858;8.530;2023-12-14T01:16:57;7.40;99.90
46336;DHT22;31365;48.858;8.530;2023-12-14T01:19:25;7.50;99.90
46336;DHT22;31365;48.858;8.530;2023-12-14T01:21:55;7.50;99.90
46336;DHT22;31365;48.858;8.530;2023-12-14T01:24:23;7.50;99.90
46336;DHT22;31365;48.858;8.530;2023-12-14T01:26:51;7.50;99.90
46336;DHT22;31365;48.858;8.530;2023-12-14T01:29:20;7.50;99.90
46336;DHT22;31365;48.858;8.530;2023-12-14T01:31:48;7.50;99.90
46336;DHT22;31365;48.858;8.530;2023-12-14T01:34:16;7.40;99.90
46336;DHT22;31365;48.858;8.530;2023-12-14T01:36:44;7.50;99.90
46336;DHT22;31365;48.858;8.530;2023-12-14T01:39:14;7.50;99.90
46336;DHT22;31365;48.858;8.530;2023-12-14T01:41:42;7.50;99.90
46336;DHT22;31365;48.858;8.530;2023-12-14T01:44:10;7.50;99.90
46336;DHT22;31365;48.858;8.530;2023-12-14T01:46:38;7.40;99.90
46336;DHT22;31365;48.858;8.530;2023-12-14T01:49:07;7.40;99.90
46336;DHT22;31365;48.858;8.530;2023-12-14T01:51:36;7.40;99.90
46336;DHT22;31365;48.858;8.530;2023-12-14T01:54:04;7.40;99.90
46336;DHT22;31365;48.858;8.530;2023-12-14T01:56:35;7.40;99.90
46336;DHT22;31365;48.858;8.530;2023-12-14T01:59:03;7.40;99.90
46336;DHT22;31365;48.858;8.530;2023-12-14T02:01:37;7.40;99.90
46336;DHT22;31365;48.858;8.530;2023-12-14T02:04:10;7.40;99.90
46336;DHT22;31365;48.858;8.530;2023-12-14T02:06:39;7.40;99.90
46336;DHT22;31365;48.858;8.530;2023-12-14T02:09:07;7.30;99.90
46336;DHT22;31365;48.858;8.530;2023-12-14T02:11:41;7.30;99.90
46336;DHT22;31365;48.858;8.530;2023-12-14T02:14:09;7.30;99.90
46336;DHT22;31365;48.858;8.530;2023-12-14T02:16:38;7.30;99.90
46336;DHT22;31365;48.858;8.530;2023-12-14T02:19:06;7.30;99.90
46336;DHT22;31365;48.858;8.530;2023-12-14T02:21:35;7.40;99.90
46336;DHT22;31365;48.858;8.530;2023-12-14T02:24:05;7.40;99.90
46336;DHT22;31365;48.858;8.530;2023-12-14T02:26:33;7.40;99.90
46336;DHT22;31365;48.858;8.530;2023-12-14T02:29:02;7.40;99.90
46336;DHT22;31365;48.858;8.530;2023-12-14T02:31:30;7.40;99.90
46336;DHT22;31365;48.858;8.530;2023-12-14T02:33:58;7.50;99.90
46336;DHT22;31365;48.858;8.530;2023-12-14T02:36:27;7.50;99.90
46336;DHT22;31365;48.858;8.530;2023-12-14T02:38:55;7.60;99.90
46336;DHT22;31365;48.858;8.530;2023-12-14T02:41:25;7.50;99.90
46336;DHT22;31365;48.858;8.530;2023-12-14T02:43:53;7.60;99.90
46336;DHT22;31365;48.858;8.530;2023-12-14T02:46:22;7.60;99.90
46336;DHT22;31365;48.858;8.530;2023-12-14T02:48:50;7.60;99.90
46336;DHT22;31365;48.858;8.530;2023-12-14T02:51:19;7.60;99.90
46336;DHT22;31365;48.858;8.530;2023-12-14T02:53:48;7.70;99.90
46336;DHT22;31365;48.858;8.530;2023-12-14T02:56:16;7.70;99.90
46336;DHT22;31365;48.858;8.530;2023-12-14T02:58:46;7.70;99.90
46336;DHT22;31365;48.858;8.530;2023-12-14T03:01:18;7.70;99.90
46336;DHT22;31365;48.858;8.530;2023-12-14T03:03:49;7.70;99.90
46336;DHT22;31365;48.858;8.530;2023-12-14T03:06:17;7.70;99.90
46336;DHT22;31365;48.858;8.530;2023-12-14T03:08:46;7.60;99.90
46336;DHT22;31365;48.858;8.530;2023-12-14T03:11:21;7.60;99.90
46336;DHT22;31365;48.858;8.530;2023-12-14T03:13:52;7.60;99.90
46336;DHT22;31365;48.858;8.530;2023-12-14T03:16:21;7.60;99.90
46336;DHT22;31365;48.858;8.530;2023-12-14T03:18:52;7.60;99.90
46336;DHT22;31365;48.858;8.530;2023-12-14T03:21:20;7.70;99.90
46336;DHT22;31365;48.858;8.530;2023-12-14T03:23:48;7.60;99.90
46336;DHT22;31365;48.858;8.530;2023-12-14T03:26:17;7.70;99.90
46336;DHT22;31365;48.858;8.530;2023-12-14T03:28:45;7.60;99.90
46336;DHT22;31365;48.858;8.530;2023-12-14T03:31:15;7.70;99.90
46336;DHT22;31365;48.858;8.530;2023-12-14T03:33:44;7.70;99.90
46336;DHT22;31365;48.858;8.530;2023-12-14T03:36:14;7.70;99.90
46336;DHT22;31365;48.858;8.530;2023-12-14T03:38:43;7.70;99.90
46336;DHT22;31365;48.858;8.530;2023-12-14T03:41:11;7.70;99.90
46336;DHT22;31365;48.858;8.530;2023-12-14T03:43:39;7.70;99.90
46336;DHT22;31365;48.858;8.530;2023-12-14T03:46:07;7.70;99.90
46336;DHT22;31365;48.858;8.530;2023-12-14T03:48:37;7.70;99.90
46336;DHT22;31365;48.858;8.530;2023-12-14T03:51:06;7.70;99.90
46336;DHT22;31365;48.858;8.530;2023-12-14T03:53:34;7.70;99.90
46336;DHT22;31365;48.858;8.530;2023-12-14T03:56:02;7.70;99.90
46336;DHT22;31365;48.858;8.530;2023-12-14T03:58:31;7.70;99.90
46336;DHT22;31365;48.858;8.530;2023-12-14T04:00:59;7.70;99.90
46336;DHT22;31365;48.858;8.530;2023-12-14T04:03:28;7.70;99.90
46336;DHT22;31365;48.858;8.530;2023-12-14T04:05:58;7.70;99.90
46336;DHT22;31365;48.858;8.530;2023-12-14T04:08:26;7.70;99.90
46336;DHT22;31365;48.858;8.530;2023-12-14T04:10:54;7.70;99.90
46336;DHT22;31365;48.858;8.530;2023-12-14T04:13:22;7.70;99.90
46336;DHT22;31365;48.858;8.530;2023-12-14T04:15:51;7.80;99.90
46336;DHT22;31365;48.858;8.530;2023-12-14T04:18:19;7.80;99.90
46336;DHT22;31365;48.858;8.530;2023-12-14T04:20:47;7.80;99.90
46336;DHT22;31365;48.858;8.530;2023-12-14T04:23:17;7.80;99.90
46336;DHT22;31365;48.858;8.530;2023-12-14T04:25:46;7.80;99.90
46336;DHT22;31365;48.858;8.530;2023-12-14T04:28:14;7.70;99.90
46336;DHT22;31365;48.858;8.530;2023-12-14T04:30:42;7.80;99.90
46336;DHT22;31365;48.858;8.530;2023-12-14T04:33:10;7.80;99.90
46336;DHT22;31365;48.858;8.530;2023-12-14T04:35:39;7.70;99.90
46336;DHT22;31365;48.858;8.530;2023-12-14T04:38:07;7.70;99.90
46336;DHT22;31365;48.858;8.530;2023-12-14T04:40:37;7.70;99.90
46336;DHT22;31365;48.858;8.530;2023-12-14T04:43:09;7.70;99.90
46336;DHT22;31365;48.858;8.530;2023-12-14T04:45:37;7.70;99.90
46336;DHT22;31365;48.858;8.530;2023-12-14T04:48:05;7.70;99.90
46336;DHT22;31365;48.858;8.530;2023-12-14T04:50:34;7.70;99.90
46336;DHT22;31365;48.858;8.530;2023-12-14T04:53:02;7.70;99.90
46336;DHT22;31365;48.858;8.530;2023-12-14T04:55:32;7.80;99.90
46336;DHT22;31365;48.858;8.530;2023-12-14T04:58:02;7.80;99.90
46336;DHT22;31365;48.858;8.530;2023-12-14T05:00:30;7.80;99.90
46336;DHT22;31365;48.858;8.530;2023-12-14T05:02:59;7.80;99.90
46336;DHT22;31365;48.858;8.530;2023-12-14T05:05:29;7.90;99.90
46336;DHT22;31365;48.858;8.530;2023-12-14T05:07:57;7.80;99.90
46336;DHT22;31365;48.858;8.530;2023-12-14T05:10:26;7.80;99.90
46336;DHT22;31365;48.858;8.530;2023-12-14T05:12:54;7.80;99.90
46336;DHT22;31365;48.858;8.530;2023-12-14T05:15:23;7.80;99.90
46336;DHT22;31365;48.858;8.530;2023-12-14T05:17:51;7.70;99.90
46336;DHT22;31365;48.858;8.530;2023-12-14T05:20:20;7.80;99.90
46336;DHT22;31365;48.858;8.530;2023-12-14T05:22:48;7.80;99.90
46336;DHT22;31365;48.858;8.530;2023-12-14T05:25:17;7.80;99.90
46336;DHT22;31365;48.858;8.530;2023-12-14T05:27:45;7.80;99.90
46336;DHT22;31365;48.858;8.530;2023-12-14T05:30:14;7.80;99.90
46336;DHT22;31365;48.858;8.530;2023-12-14T05:32:45;7.80;99.90
46336;DHT22;31365;48.858;8.530;2023-12-14T05:35:14;7.70;99.90
46336;DHT22;31365;48.858;8.530;2023-12-14T05:37:44;7.70;99.90
46336;DHT22;31365;48.858;8.530;2023-12-14T05:40:12;7.70;99.90
46336;DHT22;31365;48.858;8.530;2023-12-14T05:42:41;7.70;99.90
46336;DHT22;31365;48.858;8.530;2023-12-14T05:45:10;7.70;99.90
46336;DHT22;31365;48.858;8.530;2023-12-14T05:47:39;7.70;99.90
46336;DHT22;31365;48.858;8.530;2023-12-14T05:50:10;7.70;99.90
46336;DHT22;31365;48.858;8.530;2023-12-14T05:52:39;7.80;99.90
46336;DHT22;31365;48.858;8.530;2023-12-14T05:55:08;7.80;99.90
46336;DHT22;31365;48.858;8.530;2023-12-14T05:57:40;7.80;99.90
46336;DHT22;31365;48.858;8.530;2023-12-14T06:00:09;7.80;99.90
46336;DHT22;31365;48.858;8.530;2023-12-14T06:02:38;7.80;99.90
46336;DHT22;31365;48.858;8.530;2023-12-14T06:05:09;7.80;99.90
46336;DHT22;31365;48.858;8.530;2023-12-14T06:07:37;7.90;99.90
46336;DHT22;31365;48.858;8.530;2023-12-14T06:10:27;7.90;99.90
46336;DHT22;31365;48.858;8.530;2023-12-14T06:12:57;7.80;99.90
46336;DHT22;31365;48.858;8.530;2023-12-14T06:15:25;7.80;99.90
46336;DHT22;31365;48.858;8.530;2023-12-14T06:17:55;7.80;99.90
46336;DHT22;31365;48.858;8.530;2023-12-14T06:20:25;7.80;99.90
46336;DHT22;31365;48.858;8.530;2023-12-14T06:22:53;7.80;99.90
46336;DHT22;31365;48.858;8.530;2023-12-14T06:25:21;7.90;99.90
46336;DHT22;31365;48.858;8.530;2023-12-14T06:27:50;7.80;99.90
46336;DHT22;31365;48.858;8.530;2023-12-14T06:30:18;7.80;99.90
46336;DHT22;31365;48.858;8.530;2023-12-14T06:32:46;7.80;99.90
46336;DHT22;31365;48.858;8.530;2023-12-14T06:35:15;7.90;99.90
46336;DHT22;31365;48.858;8.530;2023-12-14T06:37:44;7.80;99.90
46336;DHT22;31365;48.858;8.530;2023-12-14T06:40:14;7.90;99.90
46336;DHT22;31365;48.858;8.530;2023-12-14T06:42:42;7.80;99.90
46336;DHT22;31365;48.858;8.530;2023-12-14T06:45:10;7.80;99.90
46336;DHT22;31365;48.858;8.530;2023-12-14T06:47:38;7.80;99.90
46336;DHT22;31365;48.858;8.530;2023-12-14T06:50:09;7.80;99.90
46336;DHT22;31365;48.858;8.530;2023-12-14T06:52:38;7.80;99.90
46336;DHT22;31365;48.858;8.530;2023-12-14T06:55:08;7.80;99.90
46336;DHT22;31365;48.858;8.530;2023-12-14T06:57:37;7.80;99.90
46336;DHT22;31365;48.858;8.530;2023-12-14T07:00:07;7.80;99.90
46336;DHT22;31365;48.858;8.530;2023-12-14T07:02:58;7.70;99.90
46336;DHT22;31365;48.858;8.530;2023-12-14T07:05:26;7.70;99.90
46336;DHT22;31365;48.858;8.530;2023-12-14T07:07:56;7.70;99.90
46336;DHT22;31365;48.858;8.530;2023-12-14T07:10:26;7.70;99.90
46336;DHT22;31365;48.858;8.530;2023-12-14T07:12:54;7.70;99.90
46336;DHT22;31365;48.858;8.530;2023-12-14T07:15:23;7.70;99.90
46336;DHT22;31365;48.858;8.530;2023-12-14T07:17:52;7.70;99.90
46336;DHT22;31365;48.858;8.530;2023-12-14T07:20:23;7.70;99.90
46336;DHT22;31365;48.858;8.530;2023-12-14T07:22:52;7.70;99.90
46336;DHT22;31365;48.858;8.530;2023-12-14T07:25:20;7.70;99.90
46336;DHT22;31365;48.858;8.530;2023-12-14T07:27:49;7.70;99.90
46336;DHT22;31365;48.858;8.530;2023-12-14T07:30:18;7.70;99.90
46336;DHT22;31365;48.858;8.530;2023-12-14T07:32:46;7.80;99.90
46336;DHT22;31365;48.858;8.530;2023-12-14T07:35:15;7.80;99.90
46336;DHT22;31365;48.858;8.530;2023-12-14T07:37:43;7.80;99.90
46336;DHT22;31365;48.858;8.530;2023-12-14T07:40:12;7.80;99.90
46336;DHT22;31365;48.858;8.530;2023-12-14T07:42:40;7.80;99.90
46336;DHT22;31365;48.858;8.530;2023-12-14T07:45:11;7.80;99.90
46336;DHT22;31365;48.858;8.530;2023-12-14T07:47:40;7.80;99.90
46336;DHT22;31365;48.858;8.530;2023-12-14T07:50:09;7.80;99.90
46336;DHT22;31365;48.858;8.530;2023-12-14T07:52:38;7.80;99.90
46336;DHT22;31365;48.858;8.530;2023-12-14T07:55:07;7.80;99.90
46336;DHT22;31365;48.858;8.530;2023-12-14T07:57:37;7.90;99.90
46336;DHT22;31365;48.858;8.530;2023-12-14T08:00:11;7.90;99.90
46336;DHT22;31365;48.858;8.530;2023-12-14T08:02:40;8.00;99.90
46336;DHT22;31365;48.858;8.530;2023-12-14T08:05:09;7.90;99.90
46336;DHT22;31365;48.858;8.530;2023-12-14T08:07:38;8.00;99.90
46336;DHT22;31365;48.858;8.530;2023-12-14T08:10:08;8.00;99.90
46336;DHT22;31365;48.858;8.530;2023-12-14T08:12:37;8.10;99.90
46336;DHT22;31365;48.858;8.530;2023-12-14T08:15:05;8.10;99.90
46336;DHT22;31365;48.858;8.530;2023-12-14T08:17:39;8.10;99.90
46336;DHT22;31365;48.858;8.530;2023-12-14T08:20:09;8.10;99.90
46336;DHT22;31365;48.858;8.530;2023-12-14T08:22:39;8.10;99.90
46336;DHT22;31365;48.858;8.530;2023-12-14T08:25:13;8.20;99.90
46336;DHT22;31365;48.858;8.530;2023-12-14T08:27:42;8.20;99.90
46336;DHT22;31365;48.858;8.530;2023-12-14T08:30:13;8.20;99.90
46336;DHT22;31365;48.858;8.530;2023-12-14T08:32:43;8.30;99.90
46336;DHT22;31365;48.858;8.530;2023-12-14T08:35:12;8.30;99.90
46336;DHT22;31365;48.858;8.530;2023-12-14T08:37:40;8.30;99.90
46336;DHT22;31365;48.858;8.530;2023-12-14T08:40:09;8.30;99.90
46336;DHT22;31365;48.858;8.530;2023-12-14T08:42:38;8.30;99.90
46336;DHT22;31365;48.858;8.530;2023-12-14T08:45:08;8.40;99.90
46336;DHT22;31365;48.858;8.530;2023-12-14T08:47:39;8.40;99.90
46336;DHT22;31365;48.858;8.530;2023-12-14T08:50:09;8.40;99.90
46336;DHT22;31365;48.858;8.530;2023-12-14T08:52:37;8.40;99.90
46336;DHT22;31365;48.858;8.530;2023-12-14T08:55:06;8.50;99.90
46336;DHT22;31365;48.858;8.530;2023-12-14T08:57:35;8.50;99.90
46336;DHT22;31365;48.858;8.530;2023-12-14T09:00:04;8.60;99.90
46336;DHT22;31365;48.858;8.530;2023-12-14T09:02:35;8.60;99.90
46336;DHT22;31365;48.858;8.530;2023-12-14T09:05:05;8.60;99.90
46336;DHT22;31365;48.858;8.530;2023-12-14T09:07:35;8.70;99.90
46336;DHT22;31365;48.858;8.530;2023-12-14T09:10:04;8.80;99.90
46336;DHT22;31365;48.858;8.530;2023-12-14T09:12:33;8.80;99.90
46336;DHT22;31365;48.858;8.530;2023-12-14T09:15:03;8.80;99.90
46336;DHT22;31365;48.858;8.530;2023-12-14T09:17:31;8.80;99.90
46336;DHT22;31365;48.858;8.530;2023-12-14T09:20:05;8.80;99.90
46336;DHT22;31365;48.858;8.530;2023-12-14T09:22:35;8.80;99.90
46336;DHT22;31365;48.858;8.530;2023-12-14T09:25:04;8.90;99.90
46336;DHT22;31365;48.858;8.530;2023-12-14T09:27:36;8.90;99.90
46336;DHT22;31365;48.858;8.530;2023-12-14T09:30:06;9.00;99.90
46336;DHT22;31365;48.858;8.530;2023-12-14T09:32:35;9.00;99.90
46336;DHT22;31365;48.858;8.530;2023-12-14T09:35:04;9.00;99.90
46336;DHT22;31365;48.858;8.530;2023-12-14T09:37:33;9.00;99.90
46336;DHT22;31365;48.858;8.530;2023-12-14T09:40:06;9.00;99.90
46336;DHT22;31365;48.858;8.530;2023-12-14T09:42:37;9.00;99.90
46336;DHT22;31365;48.858;8.530;2023-12-14T09:45:07;8.90;99.90
46336;DHT22;31365;48.858;8.530;2023-12-14T09:47:36;8.90;99.90
46336;DHT22;31365;48.858;8.530;2023-12-14T09:50:06;9.00;99.90
46336;DHT22;31365;48.858;8.530;2023-12-14T09:52:35;9.00;99.90
46336;DHT22;31365;48.858;8.530;2023-12-14T09:55:06;9.10;99.90
46336;DHT22;31365;48.858;8.530;2023-12-14T09:57:35;9.20;99.90
46336;DHT22;31365;48.858;8.530;2023-12-14T10:00:05;9.30;99.90
46336;DHT22;31365;48.858;8.530;2023-12-14T10:02:37;9.30;99.90
46336;DHT22;31365;48.858;8.530;2023-12-14T10:05:09;9.30;99.90
46336;DHT22;31365;48.858;8.530;2023-12-14T10:07:41;9.20;99.90
46336;DHT22;31365;48.858;8.530;2023-12-14T10:10:13;9.20;99.90
46336;DHT22;31365;48.858;8.530;2023-12-14T10:12:51;9.10;99.90
46336;DHT22;31365;48.858;8.530;2023-12-14T10:15:21;9.00;99.90
46336;DHT22;31365;48.858;8.530;2023-12-14T10:17:51;8.90;99.90
46336;DHT22;31365;48.858;8.530;2023-12-14T10:20:20;8.80;99.90
46336;DHT22;31365;48.858;8.530;2023-12-14T10:22:50;8.60;99.90
46336;DHT22;31365;48.858;8.530;2023-12-14T10:25:19;8.60;99.90
46336;DHT22;31365;48.858;8.530;2023-12-14T10:27:51;8.50;99.90
46336;DHT22;31365;48.858;8.530;2023-12-14T10:30:20;8.60;99.90
46336;DHT22;31365;48.858;8.530;2023-12-14T10:32:49;8.60;99.90
46336;DHT22;31365;48.858;8.530;2023-12-14T10:35:18;8.60;99.90
46336;DHT22;31365;48.858;8.530;2023-12-14T10:37:50;8.70;99.90
46336;DHT22;31365;48.858;8.530;2023-12-14T10:40:22;8.70;99.90
46336;DHT22;31365;48.858;8.530;2023-12-14T10:42:52;8.80;99.90
46336;DHT22;31365;48.858;8.530;2023-12-14T10:45:26;8.80;99.90
46336;DHT22;31365;48.858;8.530;2023-12-14T10:48:01;8.80;99.90
46336;DHT22;31365;48.858;8.530;2023-12-14T10:50:32;8.90;99.90
46336;DHT22;31365;48.858;8.530;2023-12-14T10:53:04;9.00;99.90
46336;DHT22;31365;48.858;8.530;2023-12-14T10:55:38;9.00;99.90
46336;DHT22;31365;48.858;8.530;2023-12-14T10:58:09;9.10;99.90
46336;DHT22;31365;48.858;8.530;2023-12-14T11:00:38;9.10;99.90
46336;DHT22;31365;48.858;8.530;2023-12-14T11:03:07;9.20;99.90
46336;DHT22;31365;48.858;8.530;2023-12-14T11:05:35;9.50;99.90
46336;DHT22;31365;48.858;8.530;2023-12-14T11:08:04;9.80;99.90
46336;DHT22;31365;48.858;8.530;2023-12-14T11:10:40;10.10;99.90
46336;DHT22;31365;48.858;8.530;2023-12-14T11:13:10;10.10;99.90
46336;DHT22;31365;48.858;8.530;2023-12-14T11:15:47;9.90;99.90
46336;DHT22;31365;48.858;8.530;2023-12-14T11:18:27;9.80;99.90
46336;DHT22;31365;48.858;8.530;2023-12-14T11:20:57;9.80;99.90
46336;DHT22;31365;48.858;8.530;2023-12-14T11:23:32;9.70;99.90
46336;DHT22;31365;48.858;8.530;2023-12-14T11:26:05;9.70;99.90
46336;DHT22;31365;48.858;8.530;2023-12-14T11:28:38;9.70;99.90
46336;DHT22;31365;48.858;8.530;2023-12-14T11:31:10;9.70;99.90
46336;DHT22;31365;48.858;8.530;2023-12-14T11:33:40;9.60;99.90
46336;DHT22;31365;48.858;8.530;2023-12-14T11:36:11;9.60;99.90
46336;DHT22;31365;48.858;8.530;2023-12-14T11:38:41;9.50;99.90
46336;DHT22;31365;48.858;8.530;2023-12-14T11:41:12;9.50;99.90
46336;DHT22;31365;48.858;8.530;2023-12-14T11:43:41;9.40;99.90
46336;DHT22;31365;48.858;8.530;2023-12-14T11:46:09;9.30;99.90
46336;DHT22;31365;48.858;8.530;2023-12-14T11:48:38;9.20;99.90
46336;DHT22;31365;48.858;8.530;2023-12-14T11:51:07;9.10;99.90
46336;DHT22;31365;48.858;8.530;2023-12-14T11:53:36;9.10;99.90
46336;DHT22;31365;48.858;8.530;2023-12-14T11:56:06;9.00;99.90
46336;DHT22;31365;48.858;8.530;2023-12-14T11:58:40;9.00;99.90
46336;DHT22;31365;48.858;8.530;2023-12-14T12:01:15;9.00;99.90
46336;DHT22;31365;48.858;8.530;2023-12-14T12:03:45;9.00;99.90
46336;DHT22;31365;48.858;8.530;2023-12-14T12:06:24;9.00;99.90
46336;DHT22;31365;48.858;8.530;2023-12-14T12:08:55;9.00;99.90
46336;DHT22;31365;48.858;8.530;2023-12-14T12:11:24;9.00;99.90
46336;DHT22;31365;48.858;8.530;2023-12-14T12:13:57;8.90;99.90
46336;DHT22;31365;48.858;8.530;2023-12-14T12:16:27;8.80;99.90
46336;DHT22;31365;48.858;8.530;2023-12-14T12:18:55;8.70;99.90
46336;DHT22;31365;48.858;8.530;2023-12-14T12:21:23;8.70;99.90
46336;DHT22;31365;48.858;8.530;2023-12-14T12:23:52;8.70;99.90
46336;DHT22;31365;48.858;8.530;2023-12-14T12:26:20;8.60;99.90
46336;DHT22;31365;48.858;8.530;2023-12-14T12:28:48;8.60;99.90
46336;DHT22;31365;48.858;8.530;2023-12-14T12:31:18;8.60;99.90
46336;DHT22;31365;48.858;8.530;2023-12-14T12:33:46;8.60;99.90
46336;DHT22;31365;48.858;8.530;2023-12-14T12:36:14;8.50;99.90
46336;DHT22;31365;48.858;8.530;2023-12-14T12:38:43;8.50;99.90
46336;DHT22;31365;48.858;8.530;2023-12-14T12:41:11;8.60;99.90
46336;DHT22;31365;48.858;8.530;2023-12-14T12:43:40;8.60;99.90
46336;DHT22;31365;48.858;8.530;2023-12-14T12:46:08;8.70;99.90
46336;DHT22;31365;48.858;8.530;2023-12-14T12:48:38;8.80;99.90
46336;DHT22;31365;48.858;8.530;2023-12-14T12:51:07;8.90;99.90
46336;DHT22;31365;48.858;8.530;2023-12-14T12:53:35;8.90;99.90
46336;DHT22;31365;48.858;8.530;2023-12-14T12:56:05;8.90;99.90
46336;DHT22;31365;48.858;8.530;2023-12-14T12:58:34;8.80;99.90
46336;DHT22;31365;48.858;8.530;2023-12-14T13:01:02;8.80;99.90
46336;DHT22;31365;48.858;8.530;2023-12-14T13:03:30;8.80;99.90
46336;DHT22;31365;48.858;8.530;2023-12-14T13:05:59;8.70;99.90
46336;DHT22;31365;48.858;8.530;2023-12-14T13:08:28;8.70;99.90
46336;DHT22;31365;48.858;8.530;2023-12-14T13:10:56;8.70;99.90
46336;DHT22;31365;48.858;8.530;2023-12-14T13:13:24;8.60;99.90
46336;DHT22;31365;48.858;8.530;2023-12-14T13:15:53;8.50;99.90
46336;DHT22;31365;48.858;8.530;2023-12-14T13:18:22;8.50;99.90
46336;DHT22;31365;48.858;8.530;2023-12-14T13:20:50;8.40;99.90
46336;DHT22;31365;48.858;8.530;2023-12-14T13:23:20;8.40;99.90
46336;DHT22;31365;48.858;8.530;2023-12-14T13:25:48;8.50;99.90
46336;DHT22;31365;48.858;8.530;2023-12-14T13:28:17;8.50;99.90
46336;DHT22;31365;48.858;8.530;2023-12-14T13:30:46;8.50;99.90
46336;DHT22;31365;48.858;8.530;2023-12-14T13:33:14;8.50;99.90
46336;DHT22;31365;48.858;8.530;2023-12-14T13:35:43;8.50;99.90
46336;DHT22;31365;48.858;8.530;2023-12-14T13:38:11;8.50;99.90
46336;DHT22;31365;48.858;8.530;2023-12-14T13:40:41;8.50;99.90
46336;DHT22;31365;48.858;8.530;2023-12-14T13:43:09;8.50;99.90
46336;DHT22;31365;48.858;8.530;2023-12-14T13:45:38;8.50;99.90
46336;DHT22;31365;48.858;8.530;2023-12-14T13:48:09;8.50;99.90
46336;DHT22;31365;48.858;8.530;2023-12-14T13:50:37;8.50;99.90
46336;DHT22;31365;48.858;8.530;2023-12-14T13:53:07;8.50;99.90
46336;DHT22;31365;48.858;8.530;2023-12-14T13:55:35;8.40;99.90
46336;DHT22;31365;48.858;8.530;2023-12-14T13:58:05;8.40;99.90
46336;DHT22;31365;48.858;8.530;2023-12-14T14:00:33;8.40;99.90
46336;DHT22;31365;48.858;8.530;2023-12-14T14:03:02;8.40;99.90
46336;DHT22;31365;48.858;8.530;2023-12-14T14:05:31;8.40;99.90
46336;DHT22;31365;48.858;8.530;2023-12-14T14:08:00;8.30;99.90
46336;DHT22;31365;48.858;8.530;2023-12-14T14:10:29;8.30;99.90
46336;DHT22;31365;48.858;8.530;2023-12-14T14:12:57;8.30;99.90
46336;DHT22;31365;48.858;8.530;2023-12-14T14:15:28;8.40;99.90
46336;DHT22;31365;48.858;8.530;2023-12-14T14:17:56;8.40;99.90
46336;DHT22;31365;48.858;8.530;2023-12-14T14:20:25;8.40;99.90
46336;DHT22;31365;48.858;8.530;2023-12-14T14:22:53;8.40;99.90
46336;DHT22;31365;48.858;8.530;2023-12-14T14:25:22;8.40;99.90
46336;DHT22;31365;48.858;8.530;2023-12-14T14:27:50;8.30;99.90
46336;DHT22;31365;48.858;8.530;2023-12-14T14:30:19;8.30;99.90
46336;DHT22;31365;48.858;8.530;2023-12-14T14:32:49;8.30;99.90
46336;DHT22;31365;48.858;8.530;2023-12-14T14:35:17;8.30;99.90
46336;DHT22;31365;48.858;8.530;2023-12-14T14:37:46;8.30;99.90
46336;DHT22;31365;48.858;8.530;2023-12-14T14:40:14;8.30;99.90
46336;DHT22;31365;48.858;8.530;2023-12-14T14:42:44;8.40;99.90
46336;DHT22;31365;48.858;8.530;2023-12-14T14:45:13;8.30;99.90
46336;DHT22;31365;48.858;8.530;2023-12-14T14:47:42;8.30;99.90
46336;DHT22;31365;48.858;8.530;2023-12-14T14:50:12;8.30;99.90
46336;DHT22;31365;48.858;8.530;2023-12-14T14:52:41;8.30;99.90
46336;DHT22;31365;48.858;8.530;2023-12-14T14:55:09;8.30;99.90
46336;DHT22;31365;48.858;8.530;2023-12-14T14:57:38;8.30;99.90
46336;DHT22;31365;48.858;8.530;2023-12-14T15:00:07;8.30;99.90
46336;DHT22;31365;48.858;8.530;2023-12-14T15:02:36;8.20;99.90
46336;DHT22;31365;48.858;8.530;2023-12-14T15:05:05;8.20;99.90
46336;DHT22;31365;48.858;8.530;2023-12-14T15:07:35;8.20;99.90
46336;DHT22;31365;48.858;8.530;2023-12-14T15:10:03;8.10;99.90
46336;DHT22;31365;48.858;8.530;2023-12-14T15:12:32;8.10;99.90
46336;DHT22;31365;48.858;8.530;2023-12-14T15:15:01;8.10;99.90
46336;DHT22;31365;48.858;8.530;2023-12-14T15:17:34;8.10;99.90
46336;DHT22;31365;48.858;8.530;2023-12-14T15:20:03;8.10;99.90
46336;DHT22;31365;48.858;8.530;2023-12-14T15:22:32;8.10;99.90
46336;DHT22;31365;48.858;8.530;2023-12-14T15:25:05;8.10;99.90
46336;DHT22;31365;48.858;8.530;2023-12-14T15:27:34;8.10;99.90
46336;DHT22;31365;48.858;8.530;2023-12-14T15:30:03;8.10;99.90
46336;DHT22;31365;48.858;8.530;2023-12-14T15:32:33;8.00;99.90
46336;DHT22;31365;48.858;8.530;2023-12-14T15:35:02;8.00;99.90
46336;DHT22;31365;48.858;8.530;2023-12-14T15:37:30;8.00;99.90
46336;DHT22;31365;48.858;8.530;2023-12-14T15:40:00;8.00;99.90
46336;DHT22;31365;48.858;8.530;2023-12-14T15:42:28;8.00;99.90
46336;DHT22;31365;48.858;8.530;2023-12-14T15:44:56;7.90;99.90
46336;DHT22;31365;48.858;8.530;2023-12-14T15:47:26;7.90;99.90
46336;DHT22;31365;48.858;8.530;2023-12-14T15:49:54;7.90;99.90
46336;DHT22;31365;48.858;8.530;2023-12-14T15:52:23;7.90;99.90
46336;DHT22;31365;48.858;8.530;2023-12-14T15:54:51;7.90;99.90
46336;DHT22;31365;48.858;8.530;2023-12-14T15:57:21;7.90;99.90